createdAt,value
2022-08-17T00:02:26.439Z,15.88
2022-08-17T00:04:55.417Z,14.93
2022-08-17T00:07:23.049Z,13.93
2022-08-17T00:09:50.467Z,14.10
2022-08-17T00:12:43.317Z,14.07
2022-08-17T00:15:08.203Z,14.00
2022-08-17T00:17:38.116Z,12.53
2022-08-17T00:20:06.106Z,13.15
2022-08-17T00:22:36.421Z,12.10
2022-08-17T00:25:12.210Z,10.43
2022-08-17T00:27:39.782Z,10.93
2022-08-17T00:30:10.347Z,11.20
2022-08-17T00:33:12.527Z,11.68
2022-08-17T00:35:31.917Z,11.20
2022-08-17T00:37:58.821Z,12.18
2022-08-17T00:40:26.739Z,12.65
2022-08-17T00:43:33.239Z,11.67
2022-08-17T00:46:02.172Z,13.60
2022-08-17T00:48:30.931Z,11.68
2022-08-17T00:51:22.809Z,12.30
2022-08-17T00:54:18.202Z,12.48
2022-08-17T00:56:51.209Z,12.05
2022-08-17T00:59:21.991Z,11.82
2022-08-17T01:01:50.948Z,11.60
2022-08-17T01:04:21.249Z,14.10
2022-08-17T01:06:49.683Z,11.75
2022-08-17T01:09:18.002Z,11.23
2022-08-17T01:11:48.371Z,11.43
2022-08-17T01:14:15.431Z,11.32
2022-08-17T01:16:42.497Z,12.55
2022-08-17T01:19:18.312Z,12.45
2022-08-17T01:22:07.756Z,12.38
2022-08-17T01:24:37.161Z,12.35
2022-08-17T01:27:10.259Z,12.20
2022-08-17T01:29:41.107Z,14.20
2022-08-17T01:32:08.606Z,14.00
2022-08-17T01:34:42.706Z,15.05
2022-08-17T01:37:13.284Z,14.68
2022-08-17T01:39:48.808Z,17.45
2022-08-17T01:42:26.791Z,16.98
2022-08-17T01:44:59.024Z,16.52
2022-08-17T01:47:26.212Z,16.10
2022-08-17T01:49:53.317Z,16.00
2022-08-17T01:52:22.063Z,15.48
2022-08-17T01:54:51.521Z,15.43
2022-08-17T01:57:18.912Z,15.05
2022-08-17T01:59:46.067Z,14.13
2022-08-17T02:02:13.019Z,14.60
2022-08-17T02:04:59.230Z,13.65
2022-08-17T02:07:27.024Z,13.27
2022-08-17T02:09:54.550Z,13.15
2022-08-17T02:12:37.839Z,12.70
2022-08-17T02:15:08.487Z,13.45
2022-08-17T02:17:35.897Z,13.63
2022-08-17T02:20:03.849Z,13.50
2022-08-17T02:22:31.154Z,13.85
2022-08-17T02:25:01.890Z,13.53
2022-08-17T02:27:31.254Z,14.63
2022-08-17T02:29:58.345Z,15.30
2022-08-17T02:32:28.536Z,14.27
2022-08-17T02:35:00.335Z,12.15
2022-08-17T02:37:29.882Z,11.65
2022-08-17T02:39:58.555Z,12.07
2022-08-17T02:42:31.523Z,11.43
2022-08-17T02:44:59.214Z,11.18
2022-08-17T02:47:28.771Z,11.20
2022-08-17T02:54:40.614Z,11.35
2022-08-17T02:57:10.301Z,10.55
2022-08-17T02:59:46.738Z,10.50
2022-08-17T03:02:16.179Z,9.95
2022-08-17T03:04:43.263Z,9.93
2022-08-17T03:07:10.252Z,9.98
2022-08-17T03:09:37.940Z,10.15
2022-08-17T03:12:13.061Z,10.35
2022-08-17T03:14:41.967Z,10.60
2022-08-17T03:17:16.920Z,11.23
2022-08-17T03:19:45.027Z,11.52
2022-08-17T03:22:36.247Z,10.95
2022-08-17T03:24:59.059Z,11.32
2022-08-17T03:27:26.513Z,11.88
2022-08-17T03:29:53.628Z,11.32
2022-08-17T03:32:20.930Z,12.35
2022-08-17T03:34:48.726Z,12.30
2022-08-17T03:37:15.928Z,13.07
2022-08-17T03:39:43.034Z,14.48
2022-08-17T03:42:31.359Z,16.10
2022-08-17T03:45:01.026Z,15.80
2022-08-17T03:47:47.196Z,16.58
2022-08-17T03:50:34.687Z,19.27
2022-08-17T03:53:25.277Z,20.10
2022-08-17T03:56:10.852Z,20.20
2022-08-17T03:58:38.049Z,20.63
2022-08-17T04:01:07.036Z,21.63
2022-08-17T04:03:34.207Z,22.45
2022-08-17T04:06:02.456Z,22.80
2022-08-17T04:08:30.255Z,22.83
2022-08-17T04:10:58.354Z,23.23
2022-08-17T04:13:25.622Z,24.00
2022-08-17T04:15:53.831Z,23.00
2022-08-17T04:18:20.913Z,25.15
2022-08-17T04:20:47.995Z,27.53
2022-08-17T04:23:18.563Z,27.75
2022-08-17T04:25:49.238Z,27.48
2022-08-17T04:28:20.236Z,26.85
2022-08-17T04:30:48.201Z,28.17
2022-08-17T04:33:21.726Z,27.90
2022-08-17T04:35:51.530Z,29.65
2022-08-17T04:38:24.590Z,30.52
2022-08-17T04:41:10.363Z,31.27
2022-08-17T04:43:39.329Z,32.90
2022-08-17T04:46:10.086Z,32.27
2022-08-17T04:48:40.494Z,31.05
2022-08-17T04:51:11.444Z,30.85
2022-08-17T04:53:44.499Z,29.77
2022-08-17T04:56:16.001Z,32.38
2022-08-17T04:58:45.776Z,31.30
2022-08-17T05:01:12.938Z,31.00
2022-08-17T05:03:40.104Z,31.13
2022-08-17T05:06:07.671Z,32.35
2022-08-17T05:08:35.146Z,33.47
2022-08-17T05:11:02.284Z,31.40
2022-08-17T05:13:32.780Z,33.08
2022-08-17T05:16:02.206Z,32.42
2022-08-17T05:18:30.493Z,33.58
2022-08-17T05:20:57.736Z,33.00
2022-08-17T05:23:27.706Z,30.80
2022-08-17T05:26:10.431Z,30.48
2022-08-17T05:28:48.170Z,30.63
2022-08-17T05:31:15.688Z,29.67
2022-08-17T05:33:46.168Z,30.98
2022-08-17T05:36:41.862Z,30.30
2022-08-17T05:39:02.780Z,31.30
2022-08-17T05:41:29.724Z,31.20
2022-08-17T05:43:56.815Z,31.58
2022-08-17T05:46:27.621Z,32.17
2022-08-17T05:49:10.038Z,31.30
2022-08-17T05:51:40.081Z,31.08
2022-08-17T05:54:49.743Z,30.20
2022-08-17T05:57:43.618Z,29.55
2022-08-17T06:00:30.807Z,28.13
2022-08-17T06:03:10.572Z,27.23
2022-08-17T06:06:05.175Z,25.88
2022-08-17T06:08:51.638Z,24.27
2022-08-17T06:11:28.152Z,23.60
2022-08-17T06:14:10.257Z,22.10
2022-08-17T06:16:45.736Z,22.33
2022-08-17T06:19:38.570Z,23.05
2022-08-17T06:22:08.769Z,20.83
2022-08-17T06:24:43.163Z,19.13
2022-08-17T06:27:36.240Z,19.05
2022-08-17T06:30:09.544Z,17.13
2022-08-17T06:32:44.797Z,17.67
2022-08-17T06:35:15.639Z,17.75
2022-08-17T06:38:37.178Z,15.45
2022-08-17T06:41:38.967Z,15.82
2022-08-17T06:44:43.211Z,15.63
2022-08-17T06:47:32.862Z,15.70
2022-08-17T06:50:31.935Z,14.90
2022-08-17T06:53:38.993Z,13.95
2022-08-17T06:56:11.732Z,13.95
2022-08-17T06:58:43.180Z,13.80
2022-08-17T07:01:18.387Z,13.50
2022-08-17T07:03:49.902Z,13.90
2022-08-17T07:06:23.643Z,12.93
2022-08-17T07:09:06.480Z,12.95
2022-08-17T07:11:36.500Z,11.83
2022-08-17T07:14:15.190Z,12.40
2022-08-17T07:16:50.797Z,12.48
2022-08-17T07:19:22.708Z,12.05
2022-08-17T07:26:13.352Z,12.97
2022-08-17T07:28:40.484Z,12.38
2022-08-17T07:31:14.234Z,12.57
2022-08-17T07:33:59.893Z,11.65
2022-08-17T07:36:30.030Z,11.65
2022-08-17T07:38:58.397Z,11.40
2022-08-17T07:41:25.489Z,11.27
2022-08-17T07:44:15.482Z,11.02
2022-08-17T07:47:10.844Z,10.82
2022-08-17T07:49:46.352Z,11.18
2022-08-17T07:52:50.821Z,10.57
2022-08-17T07:55:30.651Z,11.00
2022-08-17T07:57:59.484Z,10.35
2022-08-17T08:00:32.058Z,10.85
2022-08-17T08:03:26.116Z,10.60
2022-08-17T08:06:01.256Z,9.73
2022-08-17T08:08:52.262Z,9.60
2022-08-17T08:11:33.256Z,10.00
2022-08-17T08:14:28.708Z,9.88
2022-08-17T08:17:07.246Z,9.30
2022-08-17T08:19:36.575Z,9.10
2022-08-17T08:22:11.390Z,8.55
2022-08-17T08:25:02.682Z,9.27
2022-08-17T08:27:52.616Z,8.77
2022-08-17T08:30:21.895Z,8.07
2022-08-17T08:33:04.655Z,7.70
2022-08-17T08:35:58.939Z,7.75
2022-08-17T08:38:34.569Z,7.18
2022-08-17T08:41:12.329Z,7.20
2022-08-17T08:44:10.236Z,6.90
2022-08-17T08:47:18.308Z,6.23
2022-08-17T08:50:37.470Z,5.90
2022-08-17T08:53:21.984Z,6.30
2022-08-17T08:56:03.567Z,6.43
2022-08-17T08:58:43.681Z,6.03
2022-08-17T09:01:27.949Z,6.70
2022-08-17T09:04:25.416Z,6.35
2022-08-17T09:06:58.530Z,6.00
2022-08-17T09:09:43.636Z,5.65
2022-08-17T09:12:48.776Z,5.95
2022-08-17T09:15:20.957Z,5.83
2022-08-17T09:19:01.230Z,5.80
2022-08-17T09:21:22.597Z,5.85
2022-08-17T09:24:00.062Z,5.50
2022-08-17T09:26:39.658Z,5.97
2022-08-17T09:29:11.574Z,5.30
2022-08-17T09:32:01.750Z,5.85
2022-08-17T09:34:48.374Z,5.13
2022-08-17T09:37:43.273Z,5.40
2022-08-17T09:40:23.687Z,5.68
2022-08-17T09:43:01.043Z,5.90
2022-08-17T09:45:51.257Z,7.00
2022-08-17T09:48:30.642Z,5.35
2022-08-17T09:51:24.557Z,5.20
2022-08-17T09:53:51.837Z,5.07
2022-08-17T09:56:27.441Z,4.90
2022-08-17T09:59:00.571Z,4.82
2022-08-17T10:01:36.874Z,5.05
2022-08-17T10:04:12.993Z,5.00
2022-08-17T10:06:52.305Z,5.20
2022-08-17T10:09:39.526Z,5.37
2022-08-17T10:12:20.467Z,4.93
2022-08-17T10:15:07.709Z,4.80
2022-08-17T10:18:01.285Z,5.45
2022-08-17T10:21:19.518Z,5.30
2022-08-17T10:24:11.302Z,4.63
2022-08-17T10:26:55.844Z,6.00
2022-08-17T10:29:48.478Z,5.80
2022-08-17T10:32:42.282Z,5.85
2022-08-17T10:35:18.767Z,5.20
2022-08-17T10:38:26.866Z,5.23
2022-08-17T10:41:06.005Z,4.93
2022-08-17T10:44:39.054Z,5.30
2022-08-17T10:47:03.691Z,5.30
2022-08-17T10:49:34.103Z,5.28
2022-08-17T10:52:20.731Z,5.80
2022-08-17T10:55:09.115Z,5.63
2022-08-17T10:57:41.106Z,5.63
2022-08-17T11:00:14.829Z,5.75
2022-08-17T11:02:50.187Z,5.93
2022-08-17T11:05:43.847Z,6.30
2022-08-17T11:08:36.402Z,6.00
2022-08-17T11:11:35.976Z,6.82
2022-08-17T11:14:24.000Z,7.50
2022-08-17T11:17:09.373Z,7.35
2022-08-17T11:20:04.896Z,7.97
2022-08-17T11:22:55.767Z,6.72
2022-08-17T11:25:38.595Z,6.75
2022-08-17T11:28:24.683Z,6.63
2022-08-17T11:30:57.733Z,7.93
2022-08-17T11:33:34.230Z,7.50
2022-08-17T11:36:42.415Z,8.43
2022-08-17T11:39:23.150Z,8.23
2022-08-17T11:41:55.282Z,8.07
2022-08-17T11:44:31.333Z,8.57
2022-08-17T11:47:27.508Z,8.00
2022-08-17T11:50:27.725Z,8.70
2022-08-17T11:52:55.659Z,7.90
2022-08-17T11:55:39.556Z,7.03
2022-08-17T11:58:29.559Z,7.53
2022-08-17T12:01:23.047Z,8.07
2022-08-17T12:04:00.844Z,7.15
2022-08-17T12:06:42.640Z,7.72
2022-08-17T12:09:17.264Z,7.07
2022-08-17T12:12:10.976Z,6.68
2022-08-17T12:15:08.072Z,6.43
2022-08-17T12:17:40.140Z,7.47
2022-08-17T12:20:22.207Z,7.40
2022-08-17T12:23:12.223Z,7.70
2022-08-17T12:25:47.673Z,7.90
2022-08-17T12:28:26.796Z,7.53
2022-08-17T12:30:54.640Z,8.07
2022-08-17T12:33:25.778Z,7.82
2022-08-17T12:36:04.905Z,8.02
2022-08-17T12:38:34.814Z,8.70
2022-08-17T12:41:25.041Z,8.03
2022-08-17T12:44:09.620Z,8.23
2022-08-17T12:46:48.195Z,8.88
2022-08-17T12:49:29.965Z,8.70
2022-08-17T12:52:23.756Z,8.55
2022-08-17T12:55:01.975Z,8.47
2022-08-17T12:57:43.085Z,8.90
2022-08-17T13:00:16.456Z,9.23
2022-08-17T13:02:54.560Z,10.32
2022-08-17T13:05:28.649Z,9.75
2022-08-17T13:07:58.163Z,10.37
2022-08-17T13:10:37.844Z,10.35
2022-08-17T13:13:19.552Z,9.32
2022-08-17T13:15:58.810Z,11.13
2022-08-17T13:18:34.244Z,9.90
2022-08-17T13:21:01.414Z,10.23
2022-08-17T13:23:32.369Z,11.00
2022-08-17T13:26:06.899Z,10.13
2022-08-17T13:28:36.799Z,10.05
2022-08-17T13:31:24.174Z,9.43
2022-08-17T13:33:51.219Z,9.53
2022-08-17T13:36:30.259Z,7.55
2022-08-17T13:39:27.424Z,7.00
2022-08-17T13:41:56.171Z,7.18
2022-08-17T13:44:35.005Z,7.20
2022-08-17T13:47:04.753Z,7.17
2022-08-17T13:49:48.490Z,7.22
2022-08-17T13:52:40.422Z,6.97
2022-08-17T13:55:18.570Z,7.53
2022-08-17T13:57:57.786Z,8.63
2022-08-17T14:00:36.525Z,8.23
2022-08-17T14:03:05.748Z,8.25
2022-08-17T14:05:33.934Z,7.93
2022-08-17T14:08:06.616Z,7.75
2022-08-17T14:10:36.657Z,7.88
2022-08-17T14:13:04.587Z,7.50
2022-08-17T14:15:54.712Z,7.50
2022-08-17T14:18:34.291Z,7.40
2022-08-17T14:21:08.808Z,7.32
2022-08-17T14:23:37.305Z,7.53
2022-08-17T14:26:04.991Z,7.07
2022-08-17T14:28:32.635Z,7.30
2022-08-17T14:31:00.881Z,7.10
2022-08-17T14:34:04.565Z,7.70
2022-08-17T14:36:32.475Z,6.68
2022-08-17T14:38:59.456Z,6.50
2022-08-17T14:41:26.568Z,6.75
2022-08-17T14:43:54.022Z,6.57
2022-08-17T14:46:21.049Z,6.50
2022-08-17T14:48:51.733Z,6.05
2022-08-17T14:51:23.306Z,6.27
2022-08-17T14:53:53.126Z,6.10
2022-08-17T14:56:22.432Z,5.70
2022-08-17T14:58:49.459Z,5.75
2022-08-17T15:01:20.908Z,6.20
2022-08-17T15:03:48.609Z,5.43
2022-08-17T15:06:16.471Z,5.78
2022-08-17T15:08:43.966Z,5.88
2022-08-17T15:11:14.793Z,6.40
2022-08-17T15:13:53.030Z,5.90
2022-08-17T15:16:20.623Z,6.70
2022-08-17T15:18:48.525Z,5.82
2022-08-17T15:21:16.077Z,5.55
2022-08-17T15:23:43.026Z,5.85
2022-08-17T15:26:11.242Z,5.65
2022-08-17T15:28:38.406Z,6.20
2022-08-17T15:31:06.835Z,6.00
2022-08-17T15:33:34.025Z,5.85
2022-08-17T15:36:06.569Z,5.50
2022-08-17T15:38:36.897Z,5.68
2022-08-17T15:41:04.086Z,6.20
2022-08-17T15:43:32.682Z,6.45
2022-08-17T15:46:01.822Z,6.22
2022-08-17T15:48:43.498Z,6.15
2022-08-17T15:51:24.181Z,6.40
2022-08-17T15:54:00.187Z,5.57
2022-08-17T15:56:32.235Z,5.90
2022-08-17T15:58:59.840Z,6.15
2022-08-17T16:02:27.724Z,6.30
2022-08-17T16:04:30.381Z,6.32
2022-08-17T16:06:58.844Z,6.40
2022-08-17T16:09:26.023Z,6.40
2022-08-17T16:11:55.536Z,6.43
2022-08-17T16:14:28.877Z,6.13
2022-08-17T16:17:00.903Z,6.30
2022-08-17T16:19:28.025Z,6.30
2022-08-17T16:21:55.101Z,5.70
2022-08-17T16:24:22.167Z,5.93
2022-08-17T16:26:49.171Z,6.10
2022-08-17T16:29:16.275Z,6.57
2022-08-17T16:31:43.624Z,6.27
2022-08-17T16:34:17.285Z,6.60
2022-08-17T16:36:54.927Z,5.95
2022-08-17T16:39:27.558Z,6.22
2022-08-17T16:41:56.148Z,6.75
2022-08-17T16:44:27.549Z,6.10
2022-08-17T16:46:54.796Z,6.45
2022-08-17T16:49:36.238Z,6.40
2022-08-17T16:52:10.418Z,6.10
2022-08-17T16:54:41.970Z,6.30
2022-08-17T16:57:10.501Z,6.40
2022-08-17T16:59:41.867Z,6.30
2022-08-17T17:02:13.870Z,6.30
2022-08-17T17:04:53.770Z,6.25
2022-08-17T17:07:33.985Z,6.38
2022-08-17T17:10:09.107Z,5.97
2022-08-17T17:13:01.183Z,6.38
2022-08-17T17:15:31.760Z,6.88
2022-08-17T17:18:07.097Z,7.28
2022-08-17T17:20:47.724Z,6.57
2022-08-17T17:23:37.840Z,7.17
2022-08-17T17:26:40.748Z,6.78
2022-08-17T17:29:58.495Z,6.90
2022-08-17T17:32:38.090Z,6.60
2022-08-17T17:35:34.186Z,6.63
2022-08-17T17:38:12.299Z,6.70
2022-08-17T17:40:44.898Z,7.53
2022-08-17T17:43:37.748Z,7.38
2022-08-17T17:46:26.722Z,6.70
2022-08-17T17:48:55.437Z,7.30
2022-08-17T17:52:09.605Z,7.47
2022-08-17T17:54:53.115Z,7.32
2022-08-17T17:57:55.886Z,7.25
2022-08-17T18:00:37.375Z,7.32
2022-08-17T18:03:31.100Z,7.43
2022-08-17T18:06:32.161Z,8.00
2022-08-17T18:09:33.849Z,8.52
2022-08-17T18:12:19.950Z,8.75
2022-08-17T18:15:01.533Z,9.40
2022-08-17T18:17:45.554Z,8.50
2022-08-17T18:20:36.472Z,9.03
2022-08-17T18:23:11.228Z,8.32
2022-08-17T18:25:48.075Z,9.25
2022-08-17T18:28:30.819Z,10.27
2022-08-17T18:31:17.526Z,7.97
2022-08-17T18:34:45.753Z,8.67
2022-08-17T18:37:11.149Z,8.70
2022-08-17T18:39:45.378Z,8.52
2022-08-17T18:42:29.069Z,8.50
2022-08-17T18:44:56.389Z,8.75
2022-08-17T18:47:29.476Z,8.87
2022-08-17T18:50:24.523Z,8.63
2022-08-17T18:52:51.610Z,8.45
2022-08-17T18:55:23.184Z,9.05
2022-08-17T18:57:53.138Z,9.68
2022-08-17T19:00:36.307Z,9.83
2022-08-17T19:03:22.108Z,9.40
2022-08-17T19:05:55.151Z,8.73
2022-08-17T19:08:28.409Z,9.80
2022-08-17T19:10:59.898Z,10.65
2022-08-17T19:13:47.586Z,8.90
2022-08-17T19:16:21.129Z,9.52
2022-08-17T19:19:00.278Z,9.13
2022-08-17T19:21:32.487Z,10.20
2022-08-17T19:24:09.891Z,10.45
2022-08-17T19:26:54.501Z,9.37
2022-08-17T19:29:29.503Z,8.15
2022-08-17T19:31:58.726Z,8.15
2022-08-17T19:34:33.906Z,10.13
2022-08-17T19:37:10.275Z,8.23
2022-08-17T19:39:55.668Z,9.93
2022-08-17T19:42:55.140Z,10.52
2022-08-17T19:45:45.617Z,10.23
2022-08-17T19:48:21.303Z,9.95
2022-08-17T19:51:31.481Z,10.55
2022-08-17T19:54:35.154Z,9.67
2022-08-17T19:57:23.290Z,10.75
2022-08-17T20:00:13.801Z,11.30
2022-08-17T20:02:50.362Z,10.93
2022-08-17T20:05:26.298Z,9.88
2022-08-17T20:08:01.442Z,10.43
2022-08-17T20:10:54.866Z,10.50
2022-08-17T20:13:33.145Z,10.40
2022-08-17T20:16:04.673Z,10.05
2022-08-17T20:18:37.726Z,10.15
2022-08-17T20:21:19.857Z,9.77
2022-08-17T20:23:50.777Z,9.18
2022-08-17T20:26:39.419Z,9.00
2022-08-17T20:29:09.085Z,8.63
2022-08-17T20:31:59.382Z,8.25
2022-08-17T20:34:33.458Z,8.20
2022-08-17T20:37:27.957Z,8.55
2022-08-17T20:39:58.007Z,8.52
2022-08-17T20:42:26.030Z,8.15
2022-08-17T20:45:01.833Z,8.23
2022-08-17T20:48:00.769Z,9.10
2022-08-17T20:50:38.786Z,8.48
2022-08-17T20:53:10.184Z,8.75
2022-08-17T20:55:51.398Z,8.15
2022-08-17T20:58:23.198Z,8.60
2022-08-17T21:00:56.211Z,8.90
2022-08-17T21:03:23.808Z,7.63
2022-08-17T21:06:00.790Z,8.40
2022-08-17T21:08:54.468Z,8.80
2022-08-17T21:11:56.748Z,8.18
2022-08-17T21:14:57.479Z,8.20
2022-08-17T21:17:39.398Z,8.50
2022-08-17T21:20:34.790Z,8.27
2022-08-17T21:23:35.094Z,8.57
2022-08-17T21:26:30.385Z,8.80
2022-08-17T21:29:31.136Z,8.27
2022-08-17T21:32:00.969Z,8.75
2022-08-17T21:34:42.609Z,8.63
2022-08-17T21:37:19.082Z,8.73
2022-08-17T21:39:51.938Z,8.52
2022-08-17T21:42:34.665Z,8.20
2022-08-17T21:45:11.138Z,8.43
2022-08-17T21:47:43.557Z,8.68
2022-08-17T21:50:25.766Z,9.02
2022-08-17T21:52:54.202Z,9.13
2022-08-17T21:55:29.838Z,9.20
2022-08-17T21:58:13.727Z,8.40
2022-08-17T22:00:46.126Z,8.73
2022-08-17T22:03:26.184Z,8.48
2022-08-17T22:05:53.162Z,8.43
2022-08-17T22:08:23.876Z,8.63
2022-08-17T22:11:03.213Z,8.52
2022-08-17T22:13:30.316Z,7.95
2022-08-17T22:16:15.654Z,8.68
2022-08-17T22:18:58.209Z,8.32
2022-08-17T22:21:25.596Z,8.57
2022-08-17T22:24:04.439Z,8.73
2022-08-17T22:27:11.764Z,7.90
2022-08-17T22:29:58.455Z,8.20
2022-08-17T22:32:55.573Z,8.40
2022-08-17T22:35:29.244Z,8.50
2022-08-17T22:37:57.275Z,8.43
2022-08-17T22:40:29.143Z,8.50
2022-08-17T22:42:57.811Z,8.50
2022-08-17T22:45:31.260Z,9.40
2022-08-17T22:48:01.587Z,8.83
2022-08-17T22:50:33.110Z,9.40
2022-08-17T22:53:33.670Z,10.23
2022-08-17T22:56:19.105Z,9.48
2022-08-17T22:59:12.463Z,9.77
2022-08-17T23:01:41.382Z,8.90
2022-08-17T23:04:12.195Z,10.02
2022-08-17T23:06:42.637Z,11.18
2022-08-17T23:09:09.711Z,10.23
2022-08-17T23:11:49.089Z,9.80
2022-08-17T23:14:20.033Z,9.85
2022-08-17T23:16:51.172Z,9.35
2022-08-17T23:19:23.899Z,9.48
2022-08-17T23:21:54.446Z,9.38
2022-08-17T23:24:24.892Z,9.15
2022-08-17T23:26:57.483Z,10.40
2022-08-17T23:29:26.791Z,10.13
2022-08-17T23:31:53.863Z,10.07
2022-08-17T23:34:24.322Z,9.50
2022-08-17T23:36:52.347Z,9.77
2022-08-17T23:39:27.323Z,10.40
2022-08-17T23:42:00.545Z,10.13
2022-08-17T23:44:28.977Z,10.57
2022-08-17T23:46:58.393Z,11.68
2022-08-17T23:49:25.567Z,11.38
2022-08-17T23:51:54.801Z,10.87
2022-08-17T23:54:21.682Z,10.90
2022-08-17T23:56:48.718Z,10.88
2022-08-17T23:59:17.934Z,11.65
